Terminal Aerodrome Forecast
Issued by NWS

Home | Current Version | Previous Version | Text Only | Print | Product List | Glossary On
Versions: 1 2 3 4 5 6 7 8 9 10 11 12 13 14 15
000
FTUS43 KFGF 280500
TAFBJI
TAF
KBJI 280538Z 2806/2906 17006KT P6SM BKN080
      TEMPO 2806/2810 -SN
     FM281000 15005KT 4SM -SN OVC015
     FM281300 11004KT P6SM OVC015=

USA.gov is the U.S. government's official web portal to all federal, state and local government web resources and services.